Latest Weather Observations for Parawa West

IDS60801

Issued at 12:31 pm CDT Wednesday 19 December 2018 (issued every 10 minutes, with the page automatically refreshed every 10 minutes)

About weather observations | Map of weather stations | Latest weather observations for SA | Other Formats
Station Details ID: 023875 Name: SECOND VALLEY FOREST AWS Lat: -35.57 Lon: 138.29 Height: 341.0 m
Data from the previous 72 hours. | See also: Recent months at Parawa West
Date/Time
CDT
Temp
°C
App
Temp
°C
Dew
Point
°C
Rel
Hum
%
Delta-T
°C
Wind Press
QNH
hPa
Press
MSL
hPa
Rain since
9am
mm
Dir  Spd
km/h
Gust
km/h
Spd
kts
Gust
kts
19/12:30pm 23.4 19.8 17.2 68 3.9 E 32 41 17 22 1010.1 1009.3 0.0
19/12:00pm 23.4 21.5 18.5 74 3.1 E 26 33 14 18 1010.4 1009.6 0.0
19/11:30am 22.7 19.9 17.4 72 3.3 E 28 35 15 19 1010.6 1009.8 0.0
19/11:00am 22.8 20.6 17.0 70 3.6 E 24 32 13 17 1010.9 1010.1 0.0
19/10:30am 21.1 18.4 16.7 76 2.7 E 26 37 14 20 1011.3 1010.4 0.0
19/10:00am 19.8 17.4 16.4 81 2.1 E 24 32 13 17 1011.7 1010.8 0.0
19/09:30am 18.0 16.0 17.5 97 0.3 ESE 24 33 13 18 1011.7 1010.8 0.0
19/09:00am 16.8 14.9 16.6 99 0.1 SSE 22 28 12 15 1011.7 1010.8 7.6
19/08:30am 17.0 15.2 15.9 93 0.7 SE 20 28 11 15 1011.8 1010.9 7.6
19/08:00am 17.6 15.0 15.8 89 1.1 ESE 24 30 13 16 1010.7 1009.9 7.6
19/07:30am 17.6 15.8 15.6 88 1.2 E 19 26 10 14 1012.1 1011.3 7.4
19/07:26am 18.3 16.4 15.7 85 1.6 ESE 20 32 11 17 1012.1 1011.3 7.4
19/07:15am 17.8 15.7 16.1 90 1.0 SE 22 32 12 17 1009.9 1009.1 7.4
19/07:00am 17.1 17.4 15.1 88 1.2 SW 7 11 4 6 1012.0 1011.2 6.6
19/06:49am 17.3 17.8 14.9 86 1.4 SE 6 9 3 5 1011.9 1011.1 2.8
19/06:30am 17.4 15.8 14.9 85 1.5 SE 17 24 9 13 1009.8 1009.0 2.8
19/06:00am 17.9 16.4 15.3 85 1.5 SSE 17 24 9 13 1009.8 1009.0 2.8
19/05:30am 18.3 18.3 15.2 82 1.8 ESE 9 17 5 9 1009.8 1009.0 2.8
19/05:00am 18.6 16.7 15.3 81 2.0 SE 19 24 10 13 1008.5 1007.6 2.8
19/04:30am 19.0 18.4 14.5 75 2.7 ENE 11 17 6 9 1009.2 1008.3 2.6
19/04:00am 19.2 16.1 13.4 69 3.4 NE 22 32 12 17 1009.0 1008.1 2.4
19/03:30am 19.4 16.3 13.3 68 3.5 NE 22 39 12 21 1008.7 1007.8 2.4
19/03:00am 19.5 14.9 13.4 68 3.5 NE 30 37 16 20 1007.9 1007.1 2.4
19/02:40am 19.1 14.7 14.1 73 2.9 NE 30 50 16 27 1007.9 1007.1 2.4
19/02:30am 19.2 15.3 14.5 74 2.8 NE 28 37 15 20 1009.4 1008.6 2.4
19/02:00am 19.3 16.9 14.3 73 2.9 NE 20 43 11 23 1010.5 1009.7 2.4
19/01:30am 19.3 15.9 14.8 75 2.7 NE 26 37 14 20 1010.2 1009.4 2.4
19/01:00am 17.4 15.8 15.9 91 0.9 E 19 28 10 15 1011.8 1010.9 2.0
19/12:30am 17.4 18.2 15.9 91 0.9 SE 6 9 3 5 1013.4 1012.6 1.6
19/12:00am 17.8 18.2 15.4 86 1.4 SE 7 11 4 6 1012.8 1012.0 1.4
 
Date/Time
CDT
Temp
°C
App
Temp
°C
Dew
Point
°C
Rel
Hum
%
Delta-T
°C
Wind Press
QNH
hPa
Press
MSL
hPa
Rain since
9am
mm
Dir  Spd
km/h
Gust
km/h
Spd
kts
Gust
kts
18/11:30pm 19.1 18.7 15.2 78 2.3 SE 11 17 6 9 1012.8 1012.0 1.4
18/11:00pm 19.2 18.9 15.5 79 2.2 NE 11 17 6 9 1013.1 1012.3 1.4
18/10:30pm 19.2 16.5 15.5 79 2.2 ENE 24 33 13 18 1012.4 1011.6 1.4
18/10:00pm 18.6 15.5 15.7 83 1.7 NE 26 41 14 22 1012.6 1011.8 1.4
18/09:30pm 18.6 16.2 15.5 82 1.9 ENE 22 33 12 18 1012.7 1011.9 1.4
18/09:00pm 18.4 17.8 15.6 84 1.7 ENE 13 20 7 11 1013.3 1012.5 1.2
18/08:30pm 18.9 18.0 15.8 82 1.9 ENE 15 20 8 11 1013.9 1013.1 1.2
18/08:00pm 17.9 17.5 16.1 89 1.1 ENE 13 17 7 9 1013.9 1013.1 1.0
18/07:30pm 17.4 16.5 15.9 91 0.9 E 15 19 8 10 1013.8 1013.0 0.6
18/07:00pm 17.5 16.8 16.4 93 0.7 E 15 19 8 10 1013.9 1013.1 0.6
18/06:30pm 16.9 17.2 16.9 100 0.0 SE 11 15 6 8 1014.2 1013.3 0.6
18/06:00pm 17.0 17.2 16.7 98 0.2 SSE 11 15 6 8 1014.0 1013.2 0.6
18/05:30pm 18.6 18.4 16.8 89 1.1 SE 13 17 7 9 1013.5 1012.7 0.4
18/05:00pm 19.1 18.9 17.6 91 0.9 SSE 15 17 8 9 1013.2 1012.4 0.4
18/04:30pm 20.7 20.5 16.7 78 2.5 SE 13 17 7 9 1012.9 1012.1 0.0
18/04:00pm 21.4 21.2 16.8 75 2.8 E 13 17 7 9 1013.2 1012.4 0.0
18/03:30pm 21.1 22.4 17.1 78 2.5 ENE 6 9 3 5 1013.7 1012.9 0.0
18/03:00pm 21.1 21.5 16.3 74 2.9 ENE 9 15 5 8 1014.6 1013.8 0.0
18/02:30pm 20.4 21.3 16.2 77 2.6 NE 6 11 3 6 1014.9 1014.1 0.0
18/02:00pm 20.8 19.7 16.4 76 2.7 E 17 24 9 13 1013.9 1013.1 0.0
18/01:30pm 19.9 19.3 16.7 82 2.0 E 15 22 8 12 1014.0 1013.2 0.0
18/01:00pm 17.0 16.0 16.7 98 0.2 E 17 22 9 12 1015.0 1014.2 0.0
18/12:30pm 15.6 14.6 15.6 100 0.0 SE 15 19 8 10 1015.7 1014.9 0.0
18/12:00pm 15.6 12.9 15.6 100 0.0 SSE 24 32 13 17 1014.2 1013.3 0.0
18/11:30am 17.1 15.3 16.1 94 0.6 SE 20 28 11 15 1014.5 1013.7 0.0
18/11:00am 16.8 15.8 15.7 93 0.7 ESE 15 20 8 11 1014.8 1014.0 0.0
18/10:30am 17.7 17.2 16.0 90 1.0 SE 13 19 7 10 1015.1 1014.3 0.0
18/10:00am 16.6 15.6 15.6 94 0.6 ESE 15 20 8 11 1014.9 1014.1 0.0
18/09:30am 16.5 16.0 15.9 96 0.4 SE 13 22 7 12 1015.2 1014.4 0.0
18/09:00am 16.4 17.1 16.1 98 0.2 SE 7 17 4 9 1014.9 1014.1 0.0
18/08:30am 15.2 13.7 15.2 100 0.0 NE 17 26 9 14 1013.9 1013.1 0.0
18/08:00am 14.9 11.6 14.9 100 0.0 ESE 26 33 14 18 1014.3 1013.4 0.0
18/07:30am 15.0 12.8 15.0 100 0.0 SE 20 30 11 16 1014.5 1013.7 0.0
18/07:00am 14.8 12.2 14.8 100 0.0 E 22 32 12 17 1014.2 1013.3 0.0
18/06:30am 14.7 12.0 14.7 100 0.0 ESE 22 30 12 16 1014.4 1013.6 0.0
18/06:00am 14.7 12.0 14.7 100 0.0 SE 22 30 12 16 1014.0 1013.2 0.0
18/05:30am 14.8 12.7 14.8 100 0.0 SE 19 24 10 13 1014.0 1013.2 0.0
18/05:00am 14.8 12.7 14.8 100 0.0 SE 19 24 10 13 1013.9 1013.1 0.0
18/04:30am 14.8 12.6 14.8 100 0.0 SE 20 28 11 15 1013.8 1013.0 0.0
18/04:00am 14.8 12.6 14.8 100 0.0 SE 20 26 11 14 1013.7 1012.9 0.0
18/03:30am 14.8 12.7 14.8 100 0.0 SE 19 26 10 14 1013.4 1012.6 0.0
18/03:00am 14.7 12.0 14.7 100 0.0 SE 22 32 12 17 1012.6 1011.8 0.0
18/02:30am 14.8 12.6 14.8 100 0.0 SE 20 28 11 15 1012.7 1011.9 0.0
18/02:00am 14.9 12.3 14.9 100 0.0 SE 22 30 12 16 1012.7 1011.9 0.0
18/01:30am 14.8 12.7 14.8 100 0.0 SE 19 24 10 13 1012.9 1012.1 0.0
18/01:00am 14.7 12.4 14.7 100 0.0 SE 20 28 11 15 1012.9 1012.1 0.0
18/12:30am 14.7 12.0 14.7 100 0.0 SE 22 30 12 16 1013.1 1012.3 0.0
18/12:00am 14.7 11.7 14.7 100 0.0 SE 24 32 13 17 1012.9 1012.1 0.0
 
Date/Time
CDT
Temp
°C
App
Temp
°C
Dew
Point
°C
Rel
Hum
%
Delta-T
°C
Wind Press
QNH
hPa
Press
MSL
hPa
Rain since
9am
mm
Dir  Spd
km/h
Gust
km/h
Spd
kts
Gust
kts
17/11:30pm 14.6 11.9 14.6 100 0.0 SE 22 32 12 17 1013.3 1012.5 0.0
17/11:00pm 14.5 11.8 14.5 100 0.0 SE 22 32 12 17 1013.3 1012.5 0.0
17/10:30pm 14.5 12.7 14.5 100 0.0 SE 17 22 9 12 1013.6 1012.8 0.0
17/10:00pm 14.3 10.7 14.3 100 0.0 ESE 26 37 14 20 1012.3 1011.5 0.0
17/09:30pm 14.0 11.1 14.0 100 0.0 ESE 22 30 12 16 1012.9 1012.1 0.0
17/09:00pm 13.8 10.1 13.8 100 0.0 ESE 26 37 14 20 1012.6 1011.8 0.0
17/08:30pm 13.7 9.9 13.7 100 0.0 ESE 26 35 14 19 1013.1 1012.3 0.0
17/08:00pm 13.7 9.2 13.7 100 0.0 SE 30 39 16 21 1013.4 1012.6 0.0
17/07:30pm 13.8 10.4 13.8 100 0.0 SE 24 33 13 18 1013.7 1012.9 0.0
17/07:00pm 13.7 9.9 13.7 100 0.0 SE 26 33 14 18 1013.6 1012.8 0.0
17/06:30pm 13.8 9.7 13.8 100 0.0 SE 28 35 15 19 1013.3 1012.5 0.0
17/06:00pm 14.1 10.1 14.1 100 0.0 SE 28 37 15 20 1012.8 1012.0 0.0
17/05:30pm 14.0 10.3 14.0 100 0.0 SE 26 33 14 18 1013.2 1012.4 0.0
17/05:00pm 14.1 10.1 14.1 100 0.0 SE 28 39 15 21 1013.0 1012.2 0.0
17/04:30pm 14.0 9.6 14.0 100 0.0 SE 30 37 16 20 1013.3 1012.5 0.0
17/04:00pm 13.9 9.8 13.9 100 0.0 SSE 28 35 15 19 1014.8 1014.0 0.0
17/03:30pm 15.4 12.2 15.4 100 0.0 SSE 26 35 14 19 1014.7 1013.9 0.0
17/03:00pm 14.8 11.8 14.8 100 0.0 SSE 24 33 13 18 1014.2 1013.3 0.0
17/02:30pm 14.6 11.5 14.6 100 0.0 SSE 24 30 13 16 1014.6 1013.8 0.0
17/02:00pm 14.7 12.4 14.7 100 0.0 SSE 20 24 11 13 1015.1 1014.3 0.0
17/01:30pm 15.4 13.9 15.4 100 0.0 SE 17 22 9 12 1015.3 1014.5 0.0
17/01:00pm 15.0 12.8 15.0 100 0.0 SSE 20 26 11 14 1015.4 1014.6 0.0
17/12:30pm 14.7 12.4 14.7 100 0.0 SSE 20 28 11 15 1015.1 1014.3 0.0
17/12:00pm 14.6 12.5 14.6 100 0.0 SSE 19 26 10 14 1015.3 1014.5 0.0
17/11:30am 14.6 11.9 14.6 100 0.0 SE 22 28 12 15 1014.8 1014.0 0.0
17/11:00am 14.4 11.3 14.4 100 0.0 SE 24 30 13 16 1014.5 1013.7 0.0
17/10:30am 14.1 10.5 14.1 100 0.0 SE 26 33 14 18 1014.0 1013.2 0.0
17/10:00am 13.6 10.6 13.6 100 0.0 SE 22 30 12 16 1014.5 1013.7 0.0
17/09:30am 13.6 10.6 13.6 100 0.0 SE 22 30 12 16 1014.0 1013.2 0.0
17/09:00am 13.9 10.6 13.9 100 0.0 SE 24 33 13 18 1013.6 1012.8 2.0
17/08:30am 13.9 11.0 13.9 100 0.0 SE 22 33 12 18 1013.2 1012.4 1.8
17/08:00am 13.7 10.3 13.7 100 0.0 SE 24 33 13 18 1012.9 1012.1 1.8
17/07:30am 13.5 10.4 13.5 100 0.0 SE 22 32 12 17 1012.5 1011.7 1.8
17/07:00am 13.5 9.7 13.5 100 0.0 SE 26 35 14 19 1011.6 1010.7 1.8
17/06:30am 13.6 9.8 13.6 100 0.0 SE 26 32 14 17 1011.6 1010.7 1.8
17/06:00am 13.5 10.4 13.5 100 0.0 SSE 22 28 12 15 1011.8 1010.9 1.6
17/05:30am 13.5 10.8 13.5 100 0.0 SSE 20 26 11 14 1011.9 1011.1 1.6
17/05:00am 13.6 11.1 13.6 100 0.0 SSE 19 24 10 13 1011.9 1011.1 1.4
17/04:30am 13.8 11.2 13.8 100 0.0 SSE 20 28 11 15 1011.5 1010.6 1.2
17/04:00am 13.6 10.2 13.6 100 0.0 SSE 24 32 13 17 1011.6 1010.7 1.0
17/03:30am 13.7 10.7 13.7 100 0.0 SSE 22 30 12 16 1011.4 1010.5 0.8
17/03:00am 13.9 11.3 13.9 100 0.0 S 20 24 11 13 1011.5 1010.6 0.8
17/02:30am 13.7 11.6 13.7 100 0.0 S 17 22 9 12 1011.6 1010.7 0.6
17/02:00am 13.5 10.4 13.5 100 0.0 S 22 28 12 15 1011.4 1010.5 0.6
17/01:30am 13.7 11.3 13.7 100 0.0 S 19 24 10 13 1011.8 1010.9 0.4
17/01:00am 13.6 11.1 13.6 100 0.0 S 19 22 10 12 1011.7 1010.8 0.4
17/12:30am 13.8 12.2 13.8 100 0.0 SSW 15 24 8 13 1012.1 1011.3 0.2
17/12:00am 14.0 12.4 14.0 100 0.0 S 15 24 8 13 1012.2 1011.4 0.2
 
Date/Time
CDT
Temp
°C
App
Temp
°C
Dew
Point
°C
Rel
Hum
%
Delta-T
°C
Wind Press
QNH
hPa
Press
MSL
hPa
Rain since
9am
mm
Dir  Spd
km/h
Gust
km/h
Spd
kts
Gust
kts
16/11:30pm 14.1 13.7 14.1 100 0.0 SSW 9 17 5 9 1012.5 1011.7 0.2
16/11:00pm 14.2 14.2 14.2 100 0.0 SSW 7 13 4 7 1012.5 1011.7 0.0
16/10:30pm 14.2 13.5 14.2 100 0.0 SSW 11 15 6 8 1012.2 1011.4 0.0
16/10:00pm 14.3 13.6 14.3 100 0.0 S 11 15 6 8 1012.1 1011.3 0.0
16/09:30pm 14.1 12.9 14.1 100 0.0 S 13 17 7 9 1011.7 1010.8 0.0
16/09:00pm 14.2 12.7 14.2 100 0.0 S 15 20 8 11 1011.3 1010.4 0.0
16/08:30pm 14.3 12.8 14.3 100 0.0 S 15 22 8 12 1011.2 1010.3 0.0
16/08:00pm 14.3 12.8 14.3 100 0.0 SSW 15 19 8 10 1011.1 1010.2 0.0
16/07:30pm 14.5 13.1 14.5 100 0.0 S 15 20 8 11 1010.8 1010.0 0.0
16/07:00pm 14.6 13.2 14.6 100 0.0 SSW 15 22 8 12 1010.4 1009.6 0.0
16/06:30pm 14.6 12.9 14.6 100 0.0 SSW 17 22 9 12 1009.9 1009.1 0.0
16/06:00pm 15.0 13.0 15.0 100 0.0 SSW 19 24 10 13 1009.6 1008.8 0.0
16/05:30pm 15.4 14.3 15.4 100 0.0 S 15 19 8 10 1009.4 1008.6 0.0
16/05:00pm 15.6 13.6 15.4 99 0.1 S 20 24 11 13 1009.2 1008.3 0.0
16/04:30pm 17.0 15.8 16.2 95 0.5 SSW 17 22 9 12 1009.2 1008.3 0.0
16/04:00pm 16.4 15.6 16.1 98 0.2 S 15 20 8 11 1009.2 1008.3 0.0
16/03:30pm 16.3 15.5 16.1 99 0.1 S 15 20 8 11 1009.3 1008.5 0.0
16/03:00pm 16.9 16.5 16.3 96 0.4 SSW 13 19 7 10 1009.1 1008.2 0.0
16/02:30pm 17.1 16.3 16.0 93 0.7 SSW 15 22 8 12 1008.9 1008.0 0.0
16/02:00pm 16.9 17.0 16.6 98 0.2 SW 11 17 6 9 1009.0 1008.1 0.0
16/01:30pm 16.5 16.4 16.0 97 0.3 WSW 11 19 6 10 1009.1 1008.2 0.0
16/01:00pm 16.6 15.8 16.0 96 0.4 SW 15 24 8 13 1009.3 1008.5 0.0

Other Formats:

Comma delimited format used in spreadsheet applications
http://www.bom.gov.au/fwo/IDS60801/IDS60801.94811.axf

JavaScript Object Notation format (JSON) in row-major order
http://www.bom.gov.au/fwo/IDS60801/IDS60801.94811.json